createdAt,value
2022-09-03T00:00:54.493Z,3.88
2022-09-03T00:03:35.285Z,4.60
2022-09-03T00:06:13.014Z,4.22
2022-09-03T00:08:51.074Z,4.63
2022-09-03T00:11:27.313Z,5.43
2022-09-03T00:14:04.334Z,3.92
2022-09-03T00:16:43.310Z,5.28
2022-09-03T00:19:21.518Z,4.75
2022-09-03T00:21:58.999Z,5.50
2022-09-03T00:24:36.678Z,4.18
2022-09-03T00:27:20.598Z,5.03
2022-09-03T00:29:57.881Z,4.95
2022-09-03T00:32:40.109Z,4.75
2022-09-03T00:35:18.287Z,4.32
2022-09-03T00:37:51.486Z,4.10
2022-09-03T00:40:38.515Z,4.30
2022-09-03T00:43:21.019Z,4.45
2022-09-03T00:46:06.195Z,4.82
2022-09-03T00:48:52.152Z,3.88
2022-09-03T00:51:32.923Z,4.40
2022-09-03T00:54:10.706Z,3.88
2022-09-03T00:56:50.892Z,3.50
2022-09-03T00:59:34.570Z,4.63
2022-09-03T01:02:17.528Z,5.60
2022-09-03T01:04:59.022Z,4.05
2022-09-03T01:07:40.824Z,4.28
2022-09-03T01:10:26.168Z,5.40
2022-09-03T01:13:08.370Z,3.80
2022-09-03T01:15:51.433Z,3.55
2022-09-03T01:18:30.738Z,4.22
2022-09-03T01:21:24.991Z,3.70
2022-09-03T01:24:49.738Z,3.90
2022-09-03T01:27:35.681Z,5.35
2022-09-03T01:30:18.386Z,5.03
2022-09-03T01:33:01.100Z,5.13
2022-09-03T01:35:38.812Z,5.10
2022-09-03T01:38:24.384Z,4.13
2022-09-03T01:41:29.868Z,3.92
2022-09-03T01:44:16.844Z,4.15
2022-09-03T01:47:00.785Z,3.90
2022-09-03T01:49:41.384Z,7.93
2022-09-03T01:52:17.980Z,5.40
2022-09-03T01:55:02.528Z,5.25
2022-09-03T01:57:49.446Z,4.60
2022-09-03T02:00:21.940Z,4.60
2022-09-03T02:02:55.721Z,3.80
2022-09-03T02:05:29.263Z,3.63
2022-09-03T02:08:03.328Z,4.03
2022-09-03T02:10:41.547Z,5.30
2022-09-03T02:13:18.914Z,3.95
2022-09-03T02:15:52.957Z,4.22
2022-09-03T02:18:30.970Z,4.05
2022-09-03T02:21:03.863Z,3.67
2022-09-03T02:23:35.995Z,3.60
2022-09-03T02:26:10.884Z,3.70
2022-09-03T02:28:43.086Z,4.72
2022-09-03T02:31:15.276Z,3.67
2022-09-03T02:33:50.091Z,3.53
2022-09-03T02:36:28.034Z,4.10
2022-09-03T02:39:00.394Z,4.00
2022-09-03T02:41:32.802Z,3.47
2022-09-03T02:44:10.175Z,4.55
2022-09-03T02:46:45.465Z,4.13
2022-09-03T02:49:18.866Z,3.97
2022-09-03T02:51:51.059Z,3.03
2022-09-03T02:54:23.116Z,4.03
2022-09-03T02:56:55.170Z,3.88
2022-09-03T02:59:28.500Z,3.67
2022-09-03T03:02:01.076Z,4.57
2022-09-03T03:04:34.886Z,3.35
2022-09-03T03:07:07.226Z,3.03
2022-09-03T03:09:39.241Z,3.15
2022-09-03T03:12:11.295Z,4.05
2022-09-03T03:14:43.701Z,3.90
2022-09-03T03:17:15.742Z,3.45
2022-09-03T03:19:49.340Z,4.15
2022-09-03T03:22:21.416Z,3.20
2022-09-03T03:24:55.454Z,3.60
2022-09-03T03:27:27.956Z,4.88
2022-09-03T03:29:59.968Z,4.43
2022-09-03T03:32:32.026Z,3.90
2022-09-03T03:35:07.151Z,4.38
2022-09-03T03:37:39.171Z,4.82
2022-09-03T03:40:12.369Z,4.63
2022-09-03T03:42:44.401Z,5.05
2022-09-03T03:45:16.691Z,5.30
2022-09-03T03:47:48.725Z,3.35
2022-09-03T03:50:22.356Z,6.13
2022-09-03T03:52:54.335Z,4.55
2022-09-03T03:55:26.943Z,4.43
2022-09-03T03:57:59.211Z,4.10
2022-09-03T04:00:31.277Z,6.53
2022-09-03T04:03:03.796Z,4.10
2022-09-03T04:05:40.789Z,4.50
2022-09-03T04:08:18.252Z,4.40
2022-09-03T04:10:50.550Z,3.67
2022-09-03T04:13:22.557Z,4.13
2022-09-03T04:16:00.856Z,4.70
2022-09-03T04:18:34.046Z,4.80
2022-09-03T04:21:10.026Z,3.28
2022-09-03T04:23:43.406Z,3.22
2022-09-03T04:26:17.107Z,2.97
2022-09-03T04:28:49.392Z,4.10
2022-09-03T04:31:22.602Z,3.92
2022-09-03T04:33:55.025Z,3.67
2022-09-03T04:36:31.235Z,3.08
2022-09-03T04:39:03.272Z,3.67
2022-09-03T04:41:36.045Z,3.67
2022-09-03T04:44:08.473Z,3.40
2022-09-03T04:46:41.240Z,3.05
2022-09-03T04:49:13.748Z,3.15
2022-09-03T04:51:47.160Z,4.05
2022-09-03T04:54:19.207Z,3.47
2022-09-03T04:56:51.205Z,3.72
2022-09-03T04:59:23.291Z,3.15
2022-09-03T05:01:56.891Z,4.07
2022-09-03T05:04:29.009Z,3.20
2022-09-03T05:07:02.497Z,3.80
2022-09-03T05:09:34.992Z,4.28
2022-09-03T05:12:07.438Z,3.75
2022-09-03T05:14:39.710Z,4.65
2022-09-03T05:17:11.729Z,4.50
2022-09-03T05:19:43.837Z,6.25
2022-09-03T05:22:21.406Z,4.53
2022-09-03T05:24:53.427Z,5.35
2022-09-03T05:27:25.436Z,3.80
2022-09-03T05:29:57.411Z,3.85
2022-09-03T05:32:31.114Z,4.00
2022-09-03T05:35:03.359Z,3.80
2022-09-03T05:37:37.823Z,3.60
2022-09-03T05:40:11.579Z,3.17
2022-09-03T05:42:43.588Z,3.22
2022-09-03T05:45:15.633Z,2.70
2022-09-03T05:47:47.723Z,2.80
2022-09-03T05:50:19.741Z,2.60
2022-09-03T05:52:53.173Z,2.53
2022-09-03T05:55:25.224Z,2.35
2022-09-03T05:57:57.209Z,2.58
2022-09-03T06:00:29.195Z,2.30
2022-09-03T06:03:01.769Z,3.33
2022-09-03T06:05:33.960Z,2.47
2022-09-03T06:08:07.535Z,2.30
2022-09-03T06:10:41.125Z,2.80
2022-09-03T06:13:13.332Z,2.50
2022-09-03T06:15:45.321Z,2.65
2022-09-03T06:18:17.370Z,2.22
2022-09-03T06:20:54.540Z,2.25
2022-09-03T06:23:29.291Z,2.17
2022-09-03T06:26:05.486Z,2.20
2022-09-03T06:28:39.261Z,1.65
2022-09-03T06:31:13.198Z,2.00
2022-09-03T06:33:47.309Z,2.38
2022-09-03T06:36:20.527Z,2.80
2022-09-03T06:38:55.437Z,2.42
2022-09-03T06:41:30.831Z,2.15
2022-09-03T06:44:05.000Z,1.83
2022-09-03T06:46:42.722Z,2.13
2022-09-03T06:49:15.111Z,2.20
2022-09-03T06:51:47.906Z,2.17
2022-09-03T06:54:21.301Z,2.25
2022-09-03T06:56:53.363Z,1.73
2022-09-03T06:59:25.331Z,1.90
2022-09-03T07:01:59.279Z,2.20
2022-09-03T07:04:33.531Z,2.20
2022-09-03T07:07:05.558Z,2.05
2022-09-03T07:09:39.073Z,1.80
2022-09-03T07:12:12.156Z,1.58
2022-09-03T07:14:44.785Z,2.03
2022-09-03T07:17:17.435Z,1.80
2022-09-03T07:19:49.433Z,1.98
2022-09-03T07:22:21.486Z,1.70
2022-09-03T07:24:59.398Z,1.75
2022-09-03T07:27:31.470Z,1.52
2022-09-03T07:30:03.999Z,1.92
2022-09-03T07:32:40.524Z,1.50
2022-09-03T07:35:13.462Z,1.50
2022-09-03T07:37:45.576Z,1.65
2022-09-03T07:40:19.961Z,1.38
2022-09-03T07:43:04.305Z,1.25
2022-09-03T07:45:39.180Z,1.02
2022-09-03T07:48:11.289Z,1.20
2022-09-03T07:50:43.330Z,0.90
2022-09-03T07:53:17.018Z,0.65
2022-09-03T07:55:51.034Z,0.90
2022-09-03T07:58:25.125Z,0.60
2022-09-03T08:00:57.670Z,0.80
2022-09-03T08:03:29.918Z,0.70
2022-09-03T08:06:03.323Z,0.73
2022-09-03T08:08:39.117Z,0.50
2022-09-03T08:11:14.534Z,0.40
2022-09-03T08:13:48.310Z,0.70
2022-09-03T08:16:20.737Z,0.85
2022-09-03T08:18:52.837Z,0.55
2022-09-03T08:21:27.133Z,0.60
2022-09-03T08:24:05.883Z,0.88
2022-09-03T08:26:45.102Z,0.40
2022-09-03T08:29:20.940Z,0.80
2022-09-03T08:31:53.113Z,0.40
2022-09-03T08:34:25.340Z,0.63
2022-09-03T08:36:59.040Z,0.22
2022-09-03T08:39:31.681Z,0.57
2022-09-03T08:42:27.312Z,0.38
2022-09-03T08:45:02.858Z,0.52
2022-09-03T08:47:40.227Z,0.60
2022-09-03T08:50:25.042Z,30.25
2022-09-03T08:53:02.596Z,2.75
2022-09-03T08:55:36.788Z,9.05
2022-09-03T08:58:14.313Z,6.30
2022-09-03T09:00:51.020Z,1.52
2022-09-03T09:03:38.476Z,0.75
2022-09-03T09:06:21.371Z,1.13
2022-09-03T09:09:03.513Z,1.40
2022-09-03T09:11:49.854Z,1.20
2022-09-03T09:14:35.099Z,0.95
2022-09-03T09:17:22.196Z,2.33
2022-09-03T09:20:04.770Z,2.47
2022-09-03T09:22:40.730Z,2.58
2022-09-03T09:25:18.281Z,3.78
2022-09-03T09:27:56.129Z,2.40
2022-09-03T09:30:32.223Z,1.83
2022-09-03T09:33:05.111Z,1.10
2022-09-03T09:35:37.097Z,1.50
2022-09-03T09:38:10.205Z,1.10
2022-09-03T09:40:45.439Z,1.15
2022-09-03T09:43:21.473Z,0.80
2022-09-03T09:45:55.630Z,0.95
2022-09-03T09:48:31.711Z,1.08
2022-09-03T09:51:05.648Z,1.23
2022-09-03T09:53:37.914Z,2.10
2022-09-03T09:56:21.535Z,3.60
2022-09-03T09:59:04.206Z,2.53
2022-09-03T10:01:39.736Z,1.20
2022-09-03T10:04:13.491Z,1.20
2022-09-03T10:06:54.427Z,0.98
2022-09-03T10:09:31.138Z,1.40
2022-09-03T10:12:14.385Z,1.40
2022-09-03T10:14:53.694Z,1.77
2022-09-03T10:17:37.010Z,1.42
2022-09-03T10:20:32.234Z,1.50
2022-09-03T10:23:11.763Z,1.90
2022-09-03T10:25:53.807Z,1.60
2022-09-03T10:28:29.171Z,1.40
2022-09-03T10:31:19.512Z,1.42
2022-09-03T10:36:34.992Z,0.68
2022-09-03T10:39:15.097Z,0.80
2022-09-03T10:42:03.858Z,0.63
2022-09-03T10:45:00.780Z,1.40
2022-09-03T10:47:53.489Z,4.22
2022-09-03T10:50:30.378Z,1.40
2022-09-03T10:53:11.111Z,0.82
2022-09-03T10:55:51.569Z,0.70
2022-09-03T10:58:48.918Z,0.47
2022-09-03T11:01:29.959Z,0.60
2022-09-03T11:04:19.079Z,0.60
2022-09-03T11:06:55.177Z,0.70
2022-09-03T11:09:34.074Z,0.52
2022-09-03T11:12:09.755Z,0.32
2022-09-03T11:14:46.813Z,0.20
2022-09-03T11:17:24.003Z,0.57
2022-09-03T11:20:03.578Z,0.32
2022-09-03T11:22:39.102Z,0.50
2022-09-03T11:25:14.977Z,0.30
2022-09-03T11:27:56.867Z,0.70
2022-09-03T11:30:35.863Z,0.30
2022-09-03T11:33:10.843Z,0.50
2022-09-03T11:35:43.269Z,0.40
2022-09-03T11:38:27.350Z,0.50
2022-09-03T11:41:03.773Z,0.17
2022-09-03T11:43:35.931Z,0.28
2022-09-03T11:46:12.899Z,0.52
2022-09-03T11:48:46.697Z,0.30
2022-09-03T11:51:33.042Z,0.65
2022-09-03T11:54:23.970Z,0.30
2022-09-03T11:57:13.346Z,0.28
2022-09-03T11:59:45.377Z,0.10
2022-09-03T12:02:27.470Z,0.68
2022-09-03T12:05:14.443Z,0.40
2022-09-03T12:08:08.211Z,2.22
2022-09-03T12:10:54.615Z,1.05
2022-09-03T12:13:40.512Z,0.30
2022-09-03T12:16:25.736Z,1.98
2022-09-03T12:19:06.159Z,0.77
2022-09-03T12:21:42.575Z,1.77
2022-09-03T12:24:15.429Z,0.20
2022-09-03T12:26:48.885Z,0.52
2022-09-03T12:29:27.605Z,0.50
2022-09-03T12:32:08.871Z,0.98
2022-09-03T12:34:40.883Z,0.50
2022-09-03T12:38:04.024Z,1.27
2022-09-03T12:42:51.111Z,1.25
2022-09-03T12:46:09.837Z,0.95
2022-09-03T12:48:20.446Z,0.75
2022-09-03T12:51:47.778Z,1.73
2022-09-03T12:53:55.210Z,1.58
2022-09-03T12:56:29.081Z,1.83
2022-09-03T12:59:07.081Z,1.90
2022-09-03T13:01:45.533Z,1.48
2022-09-03T13:04:21.707Z,0.43
2022-09-03T13:07:01.047Z,1.50
2022-09-03T13:09:36.157Z,1.02
2022-09-03T13:12:21.294Z,0.85
2022-09-03T13:14:54.870Z,0.90
2022-09-03T13:17:47.666Z,0.73
2022-09-03T13:20:34.152Z,0.40
2022-09-03T13:23:39.054Z,0.70
2022-09-03T13:26:23.074Z,1.55
2022-09-03T13:29:16.783Z,1.73
2022-09-03T13:31:53.407Z,2.58
2022-09-03T13:34:32.402Z,2.50
2022-09-03T13:37:17.677Z,0.65
2022-09-03T13:39:54.599Z,0.85
2022-09-03T13:42:33.909Z,1.20
2022-09-03T13:45:16.923Z,0.88
2022-09-03T13:48:15.549Z,0.55
2022-09-03T13:50:59.131Z,0.50
2022-09-03T13:53:42.053Z,1.80
2022-09-03T13:56:21.703Z,0.68
2022-09-03T13:59:00.479Z,0.60
2022-09-03T14:01:53.562Z,0.50
2022-09-03T14:04:34.661Z,0.30
2022-09-03T14:07:13.139Z,0.25
2022-09-03T14:09:56.292Z,0.20
2022-09-03T14:12:42.628Z,0.75
2022-09-03T14:15:20.641Z,0.60
2022-09-03T14:18:00.586Z,0.80
2022-09-03T14:20:44.815Z,0.70
2022-09-03T14:23:31.142Z,0.40
2022-09-03T14:26:07.164Z,0.28
2022-09-03T14:28:44.558Z,0.68
2022-09-03T14:31:25.228Z,1.42
2022-09-03T14:34:07.306Z,0.68
2022-09-03T14:36:51.314Z,0.73
2022-09-03T14:39:34.586Z,1.17
2022-09-03T14:42:22.746Z,1.00
2022-09-03T14:45:24.244Z,1.48
2022-09-03T14:48:30.837Z,0.57
2022-09-03T14:51:19.814Z,0.50
2022-09-03T14:54:16.116Z,0.52
2022-09-03T14:56:55.198Z,0.45
2022-09-03T14:59:39.890Z,0.98
2022-09-03T15:02:40.245Z,0.70
2022-09-03T15:05:20.730Z,0.40
2022-09-03T15:10:36.474Z,0.40
2022-09-03T15:13:12.138Z,1.13
2022-09-03T15:16:06.704Z,0.13
2022-09-03T15:18:58.676Z,0.32
2022-09-03T15:21:50.522Z,1.15
2022-09-03T15:24:37.320Z,0.30
2022-09-03T15:27:29.740Z,0.68
2022-09-03T15:30:07.759Z,1.08
2022-09-03T15:32:50.176Z,0.90
2022-09-03T15:35:53.112Z,0.55
2022-09-03T15:38:36.324Z,0.90
2022-09-03T15:41:18.006Z,0.38
2022-09-03T15:43:58.435Z,0.82
2022-09-03T15:46:50.724Z,0.95
2022-09-03T15:49:45.222Z,5.72
2022-09-03T15:52:31.610Z,2.58
2022-09-03T15:55:10.661Z,0.75
2022-09-03T15:57:51.936Z,2.72
2022-09-03T16:00:31.653Z,1.67
2022-09-03T16:03:09.976Z,1.77
2022-09-03T16:05:47.685Z,1.55
2022-09-03T16:08:26.125Z,2.25
2022-09-03T16:11:06.884Z,1.63
2022-09-03T16:13:56.490Z,1.17
2022-09-03T16:16:50.222Z,1.90
2022-09-03T16:19:26.531Z,2.15
2022-09-03T16:22:01.200Z,3.78
2022-09-03T16:24:42.729Z,2.10
2022-09-03T16:27:21.324Z,2.40
2022-09-03T16:29:59.354Z,3.60
2022-09-03T16:32:47.660Z,3.88
2022-09-03T16:35:28.500Z,3.72
2022-09-03T16:38:17.680Z,5.78
2022-09-03T16:40:55.431Z,5.35
2022-09-03T16:43:41.322Z,4.57
2022-09-03T16:46:26.054Z,4.90
2022-09-03T16:49:18.252Z,6.40
2022-09-03T16:51:56.340Z,9.40
2022-09-03T16:54:44.628Z,5.15
2022-09-03T16:57:40.397Z,16.30
2022-09-03T17:00:14.843Z,11.80
2022-09-03T17:03:26.054Z,6.35
2022-09-03T17:06:24.075Z,6.82
2022-09-03T17:09:08.621Z,10.52
2022-09-03T17:11:51.540Z,8.80
2022-09-03T17:14:40.978Z,4.70
2022-09-03T17:17:25.698Z,8.83
2022-09-03T17:20:05.237Z,6.57
2022-09-03T17:22:53.519Z,10.67
2022-09-03T17:25:36.028Z,4.22
2022-09-03T17:28:25.331Z,3.35
2022-09-03T17:30:58.975Z,3.35
2022-09-03T17:33:49.675Z,6.40
2022-09-03T17:36:26.173Z,5.85
2022-09-03T17:39:37.841Z,6.18
2022-09-03T17:42:17.069Z,7.07
2022-09-03T17:45:07.508Z,7.20
2022-09-03T17:47:57.670Z,4.20
2022-09-03T17:50:34.264Z,6.15
2022-09-03T17:53:19.876Z,6.78
2022-09-03T17:55:58.821Z,3.50
2022-09-03T17:58:35.997Z,4.22
2022-09-03T18:01:15.833Z,7.00
2022-09-03T18:03:53.500Z,4.57
2022-09-03T18:06:33.838Z,7.50
2022-09-03T18:09:09.656Z,5.57
2022-09-03T18:11:49.952Z,10.23
2022-09-03T18:14:26.969Z,11.60
2022-09-03T18:17:05.376Z,12.82
2022-09-03T18:20:03.111Z,23.83
2022-09-03T18:23:06.581Z,25.48
2022-09-03T18:26:01.054Z,33.22
2022-09-03T18:28:59.536Z,35.30
2022-09-03T18:31:49.845Z,29.17
2022-09-03T18:34:48.208Z,23.50
2022-09-03T18:37:41.366Z,23.48
2022-09-03T18:40:41.256Z,17.35
2022-09-03T18:43:42.189Z,16.65
2022-09-03T18:49:58.110Z,6.70
2022-09-03T18:53:00.410Z,6.30
2022-09-03T18:56:03.968Z,5.07
2022-09-03T18:59:01.384Z,4.35
2022-09-03T19:01:55.787Z,6.70
2022-09-03T19:04:58.708Z,4.82
2022-09-03T19:08:02.208Z,5.70
2022-09-03T19:10:59.565Z,5.35
2022-09-03T19:13:53.501Z,4.63
2022-09-03T19:16:53.764Z,4.03
2022-09-03T19:20:08.132Z,3.70
2022-09-03T19:23:00.584Z,4.75
2022-09-03T19:25:51.340Z,4.57
2022-09-03T19:28:44.317Z,4.53
2022-09-03T19:31:55.416Z,4.47
2022-09-03T19:35:06.378Z,5.65
2022-09-03T19:38:05.179Z,6.20
2022-09-03T19:41:11.361Z,4.53
2022-09-03T19:44:14.503Z,4.30
2022-09-03T19:47:08.987Z,4.28
2022-09-03T19:50:15.332Z,4.88
2022-09-03T19:53:11.888Z,3.90
2022-09-03T19:56:07.749Z,2.90
2022-09-03T19:59:04.761Z,4.18
2022-09-03T20:01:56.574Z,3.38
2022-09-03T20:04:50.444Z,4.03
2022-09-03T20:07:42.784Z,3.90
2022-09-03T20:10:23.505Z,4.68
2022-09-03T20:13:03.587Z,3.88
2022-09-03T20:15:48.481Z,5.78
2022-09-03T20:18:31.205Z,3.42
2022-09-03T20:21:10.806Z,4.55
2022-09-03T20:23:53.753Z,6.33
2022-09-03T20:26:40.415Z,4.07
2022-09-03T20:29:30.882Z,4.85
2022-09-03T20:34:50.193Z,4.30
2022-09-03T20:37:28.526Z,3.72
2022-09-03T20:40:11.814Z,3.55
2022-09-03T20:43:02.830Z,3.25
2022-09-03T20:45:45.589Z,2.88
2022-09-03T20:48:23.758Z,3.65
2022-09-03T20:51:04.189Z,3.60
2022-09-03T20:53:49.857Z,3.20
2022-09-03T20:56:30.826Z,3.75
2022-09-03T20:59:17.185Z,3.90
2022-09-03T21:01:56.021Z,5.25
2022-09-03T21:04:48.231Z,4.55
2022-09-03T21:07:32.370Z,5.10
2022-09-03T21:10:15.840Z,4.10
2022-09-03T21:12:59.932Z,5.05
2022-09-03T21:15:41.530Z,5.13
2022-09-03T21:18:20.579Z,4.65
2022-09-03T21:21:02.120Z,4.22
2022-09-03T21:23:39.619Z,4.20
2022-09-03T21:26:17.183Z,4.07
2022-09-03T21:28:59.986Z,4.30
2022-09-03T21:31:38.588Z,5.13
2022-09-03T21:34:18.669Z,4.13
2022-09-03T21:36:51.605Z,4.35
2022-09-03T21:39:28.423Z,8.38
2022-09-03T21:42:07.222Z,7.65
2022-09-03T21:44:51.185Z,10.32
2022-09-03T21:47:27.248Z,11.18
2022-09-03T21:50:11.929Z,7.65
2022-09-03T21:52:53.550Z,6.18
2022-09-03T21:58:15.489Z,5.03
2022-09-03T22:00:51.942Z,5.25
2022-09-03T22:03:24.887Z,4.93
2022-09-03T22:06:03.056Z,5.53
2022-09-03T22:08:39.621Z,5.28
2022-09-03T22:11:20.902Z,5.80
2022-09-03T22:14:02.823Z,5.30
2022-09-03T22:16:43.682Z,5.63
2022-09-03T22:19:15.787Z,4.68
2022-09-03T22:21:59.441Z,5.93
2022-09-03T22:24:40.986Z,7.25
2022-09-03T22:27:22.421Z,7.68
2022-09-03T22:30:03.336Z,6.88
2022-09-03T22:32:48.028Z,5.72
2022-09-03T22:35:47.572Z,5.68
2022-09-03T22:38:37.761Z,4.87
2022-09-03T22:41:24.998Z,6.05
2022-09-03T22:44:05.696Z,6.35
2022-09-03T22:46:49.170Z,5.47
2022-09-03T22:49:33.897Z,5.72
2022-09-03T22:52:28.302Z,5.03
2022-09-03T22:55:13.199Z,4.93
2022-09-03T22:57:54.901Z,4.40
2022-09-03T23:00:29.847Z,4.90
2022-09-03T23:03:08.022Z,4.45
2022-09-03T23:05:50.165Z,5.22
2022-09-03T23:08:27.559Z,4.55
2022-09-03T23:11:05.836Z,3.95
2022-09-03T23:13:42.128Z,4.03
2022-09-03T23:16:23.860Z,3.92
2022-09-03T23:18:58.133Z,3.55
2022-09-03T23:21:40.785Z,3.10
2022-09-03T23:24:18.375Z,3.45
2022-09-03T23:26:53.701Z,4.03
2022-09-03T23:29:32.213Z,3.80
2022-09-03T23:32:05.394Z,3.08
2022-09-03T23:34:40.674Z,3.03
2022-09-03T23:37:33.928Z,3.92
2022-09-03T23:40:29.226Z,3.72
2022-09-03T23:43:37.425Z,4.00
2022-09-03T23:46:16.070Z,5.78
2022-09-03T23:49:07.623Z,4.53
2022-09-03T23:51:53.683Z,3.90
2022-09-03T23:54:37.779Z,3.25
2022-09-03T23:57:21.815Z,3.80
